createdAt,value
2017-08-08T00:01:27.496Z,6.13
2017-08-08T00:03:54.967Z,7.77
2017-08-08T00:06:22.433Z,7.00
2017-08-08T00:08:49.908Z,6.43
2017-08-08T00:11:17.369Z,7.30
2017-08-08T00:13:44.833Z,6.27
2017-08-08T00:16:12.308Z,6.37
2017-08-08T00:18:39.771Z,6.17
2017-08-08T00:21:07.248Z,6.20
2017-08-08T00:23:34.712Z,6.50
2017-08-08T00:26:02.950Z,6.33
2017-08-08T00:28:30.416Z,6.13
2017-08-08T00:30:57.895Z,5.40
2017-08-08T00:33:26.132Z,6.80
2017-08-08T00:35:53.607Z,6.80
2017-08-08T00:38:21.075Z,5.67
2017-08-08T00:40:48.548Z,6.00
2017-08-08T00:43:16.789Z,4.53
2017-08-08T00:45:44.264Z,5.67
2017-08-08T00:48:11.737Z,5.77
2017-08-08T00:50:39.976Z,4.60
2017-08-08T00:53:07.440Z,5.13
2017-08-08T00:55:34.923Z,5.23
2017-08-08T00:58:02.409Z,4.83
2017-08-08T01:00:29.888Z,5.10
2017-08-08T01:02:57.352Z,5.50
2017-08-08T01:05:24.820Z,5.50
2017-08-08T01:07:52.321Z,5.50
2017-08-08T01:10:19.825Z,5.60
2017-08-08T01:12:47.309Z,6.23
2017-08-08T01:15:14.772Z,5.90
2017-08-08T01:17:42.259Z,5.37
2017-08-08T01:20:10.480Z,4.90
2017-08-08T01:22:37.957Z,5.80
2017-08-08T01:25:05.421Z,5.37
2017-08-08T01:27:32.912Z,5.90
2017-08-08T01:30:01.154Z,5.50
2017-08-08T01:32:28.636Z,5.70
2017-08-08T01:34:56.869Z,5.60
2017-08-08T01:37:24.341Z,5.60
2017-08-08T01:39:51.808Z,5.50
2017-08-08T01:42:19.276Z,5.40
2017-08-08T01:44:46.736Z,5.13
2017-08-08T01:47:14.212Z,5.00
2017-08-08T01:49:42.441Z,5.80
2017-08-08T01:52:09.933Z,4.83
2017-08-08T01:54:37.405Z,5.53
2017-08-08T01:57:05.642Z,5.40
2017-08-08T01:59:33.111Z,5.10
2017-08-08T02:02:00.594Z,5.40
2017-08-08T02:04:28.828Z,5.87
2017-08-08T02:06:56.300Z,5.23
2017-08-08T02:09:23.784Z,5.73
2017-08-08T02:11:52.011Z,5.00
2017-08-08T02:14:19.485Z,4.97
2017-08-08T02:16:46.965Z,5.30
2017-08-08T02:19:14.440Z,6.00
2017-08-08T02:21:42.680Z,5.73
2017-08-08T02:24:10.148Z,5.70
2017-08-08T02:26:37.616Z,5.27
2017-08-08T02:29:05.097Z,6.77
2017-08-08T02:31:32.560Z,5.83
2017-08-08T02:34:00.032Z,5.00
2017-08-08T02:36:27.497Z,5.27
2017-08-08T02:38:54.977Z,6.07
2017-08-08T02:41:22.436Z,5.00
2017-08-08T02:43:49.937Z,5.07
2017-08-08T02:46:18.165Z,5.80
2017-08-08T02:48:45.636Z,5.63
2017-08-08T02:51:13.120Z,5.23
2017-08-08T02:53:40.582Z,5.00
2017-08-08T02:56:08.824Z,5.27
2017-08-08T02:58:36.287Z,6.67
2017-08-08T03:01:03.759Z,5.70
2017-08-08T03:03:31.219Z,5.83
2017-08-08T03:05:58.695Z,5.07
2017-08-08T03:08:26.936Z,5.30
2017-08-08T03:10:54.411Z,5.50
2017-08-08T03:13:21.881Z,6.03
2017-08-08T03:15:50.133Z,5.60
2017-08-08T03:18:17.604Z,5.93
2017-08-08T03:20:45.080Z,7.57
2017-08-08T03:23:13.317Z,6.90
2017-08-08T03:25:40.798Z,5.63
2017-08-08T03:28:08.251Z,6.70
2017-08-08T03:30:35.733Z,5.63
2017-08-08T03:33:03.976Z,5.80
2017-08-08T03:35:31.465Z,7.30
2017-08-08T03:37:59.696Z,5.80
2017-08-08T03:40:27.168Z,6.13
2017-08-08T03:42:55.469Z,5.70
2017-08-08T03:45:22.932Z,6.53
2017-08-08T03:47:51.181Z,6.20
2017-08-08T03:50:18.659Z,5.80
2017-08-08T03:52:46.144Z,6.50
2017-08-08T03:55:13.616Z,6.33
2017-08-08T03:57:41.099Z,6.53
2017-08-08T04:00:15.273Z,7.60
2017-08-08T04:02:42.762Z,6.20
2017-08-08T04:05:10.233Z,7.13
2017-08-08T04:07:37.703Z,6.83
2017-08-08T04:10:05.172Z,6.00
2017-08-08T04:12:32.640Z,7.20
2017-08-08T04:15:00.099Z,6.23
2017-08-08T04:17:27.568Z,7.00
2017-08-08T04:19:55.797Z,6.70
2017-08-08T04:22:23.284Z,6.03
2017-08-08T04:24:50.751Z,6.70
2017-08-08T04:27:18.980Z,7.17
2017-08-08T04:29:46.462Z,7.27
2017-08-08T04:32:13.928Z,6.57
2017-08-08T04:34:41.408Z,6.83
2017-08-08T04:37:09.648Z,6.70
2017-08-08T04:39:37.135Z,6.77
2017-08-08T04:42:04.591Z,7.10
2017-08-08T04:44:32.832Z,8.13
2017-08-08T04:47:00.313Z,7.23
2017-08-08T04:49:27.807Z,7.33
2017-08-08T04:51:56.032Z,6.83
2017-08-08T04:54:23.504Z,7.40
2017-08-08T04:56:50.972Z,6.50
2017-08-08T04:59:18.450Z,7.63
2017-08-08T05:01:46.696Z,7.90
2017-08-08T05:04:14.169Z,7.63
2017-08-08T05:06:41.639Z,7.43
2017-08-08T05:09:09.150Z,7.13
2017-08-08T05:11:36.612Z,7.30
2017-08-08T05:14:04.109Z,6.87
2017-08-08T05:16:32.339Z,5.70
2017-08-08T05:18:59.807Z,7.17
2017-08-08T05:21:27.680Z,6.70
2017-08-08T05:23:55.147Z,6.37
2017-08-08T05:26:22.624Z,6.23
2017-08-08T05:28:50.089Z,6.33
2017-08-08T05:31:18.333Z,6.30
2017-08-08T05:33:45.806Z,6.47
2017-08-08T05:36:13.279Z,5.17
2017-08-08T05:38:41.523Z,5.53
2017-08-08T05:41:09.005Z,6.20
2017-08-08T05:43:36.467Z,6.10
2017-08-08T05:46:03.936Z,5.80
2017-08-08T05:48:32.172Z,5.17
2017-08-08T05:50:59.669Z,5.00
2017-08-08T05:53:27.918Z,6.33
2017-08-08T05:55:55.397Z,6.47
2017-08-08T05:58:23.638Z,6.10
2017-08-08T06:00:51.108Z,5.83
2017-08-08T06:03:18.573Z,5.43
2017-08-08T06:05:46.043Z,5.70
2017-08-08T06:08:13.504Z,6.00
2017-08-08T06:10:41.740Z,6.40
2017-08-08T06:13:09.216Z,5.80
2017-08-08T06:15:36.680Z,5.87
2017-08-08T06:18:04.148Z,5.70
2017-08-08T06:20:31.616Z,4.93
2017-08-08T06:22:59.865Z,5.40
2017-08-08T06:25:27.324Z,4.10
2017-08-08T06:27:54.795Z,4.77
2017-08-08T06:30:22.271Z,4.63
2017-08-08T06:32:50.508Z,4.17
2017-08-08T06:35:17.975Z,4.23
2017-08-08T06:37:45.458Z,4.50
2017-08-08T06:40:13.692Z,5.00
2017-08-08T06:42:41.191Z,4.13
2017-08-08T06:45:08.664Z,4.70
2017-08-08T06:47:36.921Z,4.60
2017-08-08T06:50:04.381Z,4.50
2017-08-08T06:52:31.857Z,4.70
2017-08-08T06:55:00.082Z,4.53
2017-08-08T06:57:27.563Z,4.93
2017-08-08T06:59:55.298Z,4.90
2017-08-08T07:02:22.783Z,5.20
2017-08-08T07:04:50.258Z,3.50
2017-08-08T07:07:18.492Z,4.90
2017-08-08T07:09:45.964Z,4.40
2017-08-08T07:12:13.441Z,3.70
2017-08-08T07:14:40.916Z,4.23
2017-08-08T07:17:09.153Z,4.10
2017-08-08T07:19:36.641Z,3.70
2017-08-08T07:22:04.728Z,4.70
2017-08-08T07:24:32.965Z,4.83
2017-08-08T07:27:00.428Z,4.13
2017-08-08T07:29:27.908Z,4.90
2017-08-08T07:31:55.372Z,4.60
2017-08-08T07:34:23.614Z,4.53
2017-08-08T07:36:51.083Z,4.37
2017-08-08T07:39:18.579Z,4.53
2017-08-08T07:41:46.819Z,5.03
2017-08-08T07:44:14.291Z,4.43
2017-08-08T07:46:41.768Z,4.63
2017-08-08T07:49:10.005Z,4.70
2017-08-08T07:51:37.488Z,4.70
2017-08-08T07:54:04.952Z,4.87
2017-08-08T07:56:33.193Z,4.70
2017-08-08T07:59:00.669Z,5.33
2017-08-08T08:01:28.149Z,4.90
2017-08-08T08:03:55.631Z,5.67
2017-08-08T08:06:23.128Z,5.20
2017-08-08T08:08:50.584Z,4.70
2017-08-08T08:11:18.049Z,5.10
2017-08-08T08:13:45.519Z,4.83
2017-08-08T08:16:13.004Z,4.67
2017-08-08T08:18:41.249Z,4.87
2017-08-08T08:21:08.733Z,5.10
2017-08-08T08:23:36.976Z,5.33
2017-08-08T08:26:04.433Z,5.57
2017-08-08T08:28:31.925Z,5.50
2017-08-08T08:30:59.396Z,5.57
2017-08-08T08:33:27.625Z,5.63
2017-08-08T08:35:55.102Z,5.47
2017-08-08T08:38:22.560Z,6.00
2017-08-08T08:40:50.037Z,4.60
2017-08-08T08:43:18.272Z,4.90
2017-08-08T08:45:45.754Z,6.03
2017-08-08T08:48:13.217Z,5.77
2017-08-08T08:50:40.684Z,5.50
2017-08-08T08:53:08.925Z,6.70
2017-08-08T08:55:36.396Z,6.70
2017-08-08T08:58:03.859Z,6.93
2017-08-08T09:00:31.353Z,5.20
2017-08-08T09:02:59.592Z,5.43
2017-08-08T09:05:27.052Z,4.93
2017-08-08T09:07:54.524Z,5.50
2017-08-08T09:10:21.988Z,4.90
2017-08-08T09:12:49.461Z,6.23
2017-08-08T09:15:17.695Z,4.67
2017-08-08T09:17:45.167Z,5.77
2017-08-08T09:20:12.647Z,5.60
2017-08-08T09:22:40.891Z,5.07
2017-08-08T09:25:08.350Z,5.43
2017-08-08T09:27:35.833Z,5.10
2017-08-08T09:30:03.298Z,5.10
2017-08-08T09:32:30.785Z,4.53
2017-08-08T09:34:58.267Z,5.93
2017-08-08T09:37:25.776Z,4.97
2017-08-08T09:39:54.007Z,5.20
2017-08-08T09:42:21.488Z,4.83
2017-08-08T09:44:48.965Z,5.47
2017-08-08T09:47:16.439Z,5.23
2017-08-08T09:49:44.680Z,5.10
2017-08-08T09:52:12.180Z,4.50
2017-08-08T09:54:39.663Z,4.67
2017-08-08T09:57:07.158Z,4.70
2017-08-08T09:59:34.644Z,4.97
2017-08-08T10:02:02.133Z,4.30
2017-08-08T10:04:29.607Z,4.37
2017-08-08T10:06:57.087Z,3.97
2017-08-08T10:09:24.569Z,4.47
2017-08-08T10:11:52.331Z,4.37
2017-08-08T10:14:19.812Z,4.23
2017-08-08T10:16:47.275Z,4.27
2017-08-08T10:19:14.744Z,3.90
2017-08-08T10:21:42.984Z,4.33
2017-08-08T10:24:10.468Z,4.23
2017-08-08T10:26:37.945Z,4.17
2017-08-08T10:29:06.192Z,4.13
2017-08-08T10:31:33.652Z,4.50
2017-08-08T10:34:01.137Z,4.40
2017-08-08T10:36:29.369Z,4.60
2017-08-08T10:38:56.851Z,4.43
2017-08-08T10:41:24.315Z,4.37
2017-08-08T10:43:51.800Z,4.20
2017-08-08T10:46:19.319Z,4.83
2017-08-08T10:48:46.781Z,4.80
2017-08-08T10:51:14.252Z,4.57
2017-08-08T10:53:41.723Z,4.70
2017-08-08T10:56:09.976Z,4.17
2017-08-08T10:58:37.440Z,4.37
2017-08-08T11:01:04.909Z,4.20
2017-08-08T11:03:33.165Z,4.33
2017-08-08T11:06:00.644Z,4.37
2017-08-08T11:08:28.881Z,3.63
2017-08-08T11:10:56.352Z,4.30
2017-08-08T11:13:23.814Z,5.33
2017-08-08T11:15:51.855Z,3.67
2017-08-08T11:18:19.312Z,3.80
2017-08-08T11:20:46.783Z,4.00
2017-08-08T11:23:14.252Z,4.20
2017-08-08T11:25:41.729Z,3.80
2017-08-08T11:28:09.195Z,4.40
2017-08-08T11:30:36.668Z,3.83
2017-08-08T11:33:04.925Z,4.20
2017-08-08T11:35:32.401Z,3.50
2017-08-08T11:37:59.873Z,4.00
2017-08-08T11:40:27.369Z,4.40
2017-08-08T11:42:54.840Z,4.30
2017-08-08T11:45:22.320Z,4.53
2017-08-08T11:47:49.792Z,3.70
2017-08-08T11:50:18.036Z,4.23
2017-08-08T11:52:45.513Z,3.83
2017-08-08T11:55:12.996Z,4.23
2017-08-08T11:57:41.228Z,4.30
2017-08-08T12:02:46.584Z,4.13
2017-08-08T12:05:14.064Z,3.60
2017-08-08T12:07:41.539Z,4.13
2017-08-08T12:10:09.004Z,3.70
2017-08-08T12:12:37.244Z,4.03
2017-08-08T12:15:05.080Z,4.13
2017-08-08T12:17:32.548Z,4.07
2017-08-08T12:20:00.036Z,4.20
2017-08-08T12:22:27.508Z,4.00
2017-08-08T12:24:55.761Z,3.80
2017-08-08T12:27:23.243Z,4.10
2017-08-08T12:29:50.703Z,4.00
2017-08-08T12:32:18.172Z,4.17
2017-08-08T12:34:46.412Z,4.00
2017-08-08T12:37:13.881Z,3.63
2017-08-08T12:39:41.358Z,4.23
2017-08-08T12:42:09.892Z,4.27
2017-08-08T12:44:37.398Z,3.53
2017-08-08T12:47:04.913Z,3.87
2017-08-08T12:49:32.377Z,3.77
2017-08-08T12:51:59.869Z,4.20
2017-08-08T12:54:27.331Z,3.70
2017-08-08T12:56:55.562Z,3.93
2017-08-08T12:59:23.041Z,3.40
2017-08-08T13:01:50.504Z,3.27
2017-08-08T13:04:17.980Z,3.07
2017-08-08T13:06:45.445Z,2.80
2017-08-08T13:09:13.692Z,3.87
2017-08-08T13:11:41.162Z,3.07
2017-08-08T13:14:08.645Z,3.10
2017-08-08T13:16:36.879Z,4.10
2017-08-08T13:19:04.351Z,2.80
2017-08-08T13:21:31.820Z,3.77
2017-08-08T13:23:59.298Z,3.63
2017-08-08T13:26:27.532Z,3.30
2017-08-08T13:28:55.016Z,3.70
2017-08-08T13:31:22.493Z,3.10
2017-08-08T13:33:50.736Z,3.40
2017-08-08T13:36:18.196Z,3.43
2017-08-08T13:38:45.673Z,3.37
2017-08-08T13:41:13.141Z,3.70
2017-08-08T13:43:41.393Z,3.50
2017-08-08T13:46:08.868Z,3.73
2017-08-08T13:48:36.328Z,4.07
2017-08-08T13:51:04.568Z,3.37
2017-08-08T13:53:32.036Z,3.50
2017-08-08T13:55:59.505Z,3.70
2017-08-08T13:58:26.971Z,3.43
2017-08-08T14:00:54.457Z,3.80
2017-08-08T14:03:22.688Z,3.83
2017-08-08T14:05:50.162Z,4.23
2017-08-08T14:08:17.632Z,4.13
2017-08-08T14:10:45.116Z,4.13
2017-08-08T14:13:12.580Z,4.50
2017-08-08T14:15:40.070Z,4.47
2017-08-08T14:18:07.585Z,4.73
2017-08-08T14:20:35.836Z,3.90
2017-08-08T14:23:03.301Z,4.60
2017-08-08T14:25:30.774Z,4.03
2017-08-08T14:27:59.008Z,4.20
2017-08-08T14:30:26.467Z,4.63
2017-08-08T14:32:53.936Z,4.17
2017-08-08T14:35:21.413Z,4.20
2017-08-08T14:37:48.879Z,4.00
2017-08-08T14:40:17.112Z,4.67
2017-08-08T14:42:44.585Z,4.87
2017-08-08T14:45:12.052Z,4.10
2017-08-08T14:47:39.529Z,4.73
2017-08-08T14:50:07.756Z,4.40
2017-08-08T14:52:35.228Z,4.33
2017-08-08T14:55:02.696Z,4.27
2017-08-08T14:57:30.172Z,4.30
2017-08-08T14:59:58.405Z,4.40
2017-08-08T15:02:25.888Z,3.97
2017-08-08T15:04:53.352Z,4.60
2017-08-08T15:07:20.841Z,5.47
2017-08-08T15:09:48.365Z,5.00
2017-08-08T15:12:15.836Z,4.87
2017-08-08T15:14:43.305Z,5.30
2017-08-08T15:17:11.538Z,5.80
2017-08-08T15:19:39.010Z,5.83
2017-08-08T15:22:06.474Z,6.17
2017-08-08T15:24:33.952Z,5.83
2017-08-08T15:27:02.196Z,5.90
2017-08-08T15:29:29.663Z,5.70
2017-08-08T15:31:57.136Z,6.00
2017-08-08T15:34:24.620Z,5.10
2017-08-08T15:36:52.852Z,5.53
2017-08-08T15:39:20.333Z,5.97
2017-08-08T15:41:47.803Z,5.97
2017-08-08T15:44:15.292Z,5.60
2017-08-08T15:46:43.078Z,5.10
2017-08-08T15:49:10.572Z,5.40
2017-08-08T15:51:38.047Z,5.00
2017-08-08T15:54:06.288Z,4.80
2017-08-08T15:56:33.776Z,5.00
2017-08-08T15:59:02.029Z,5.60
2017-08-08T16:01:29.501Z,5.53
2017-08-08T16:03:56.979Z,5.03
2017-08-08T16:06:25.212Z,5.47
2017-08-08T16:08:52.708Z,6.57
2017-08-08T16:11:20.944Z,6.80
2017-08-08T16:13:48.408Z,6.23
2017-08-08T16:16:15.892Z,6.27
2017-08-08T16:18:43.371Z,5.60
2017-08-08T16:21:11.630Z,7.33
2017-08-08T16:23:39.299Z,7.77
2017-08-08T16:26:06.794Z,6.30
2017-08-08T16:28:34.592Z,5.60
2017-08-08T16:31:02.907Z,6.40
2017-08-08T16:33:31.133Z,5.90
2017-08-08T16:35:58.617Z,6.57
2017-08-08T16:38:26.085Z,6.80
2017-08-08T16:40:53.573Z,7.70
2017-08-08T16:43:21.040Z,9.00
2017-08-08T16:48:23.160Z,7.10
2017-08-08T16:50:50.633Z,7.67
2017-08-08T16:53:18.120Z,7.20
2017-08-08T16:55:46.597Z,6.80
2017-08-08T16:58:14.095Z,7.43
2017-08-08T17:00:41.585Z,7.80
2017-08-08T17:03:09.060Z,6.23
2017-08-08T17:05:36.535Z,6.60
2017-08-08T17:08:04.769Z,6.97
2017-08-08T17:10:32.308Z,6.80
2017-08-08T17:12:59.892Z,6.13
2017-08-08T17:15:27.368Z,6.20
2017-08-08T17:17:54.864Z,5.60
2017-08-08T17:20:23.088Z,5.60
2017-08-08T17:22:50.571Z,5.93
2017-08-08T17:25:18.031Z,6.00
2017-08-08T17:27:45.505Z,5.60
2017-08-08T17:30:13.744Z,6.37
2017-08-08T17:32:41.224Z,6.00
2017-08-08T17:35:08.688Z,6.67
2017-08-08T17:37:36.944Z,5.50
2017-08-08T17:40:04.413Z,5.40
2017-08-08T17:42:31.894Z,6.43
2017-08-08T17:45:00.125Z,5.43
2017-08-08T17:47:27.594Z,6.30
2017-08-08T17:49:55.828Z,5.37
2017-08-08T17:52:23.327Z,5.10
2017-08-08T17:54:51.563Z,5.27
2017-08-08T17:57:19.065Z,4.60
2017-08-08T17:59:47.293Z,4.53
2017-08-08T18:02:14.782Z,5.03
2017-08-08T18:04:42.253Z,4.80
2017-08-08T18:07:09.726Z,4.83
2017-08-08T18:09:37.980Z,5.47
2017-08-08T18:12:05.442Z,4.87
2017-08-08T18:14:32.924Z,5.07
2017-08-08T18:17:01.158Z,5.40
2017-08-08T18:19:28.633Z,5.63
2017-08-08T18:21:56.360Z,5.40
2017-08-08T18:24:23.840Z,6.40
2017-08-08T18:26:51.318Z,5.47
2017-08-08T18:29:18.787Z,5.23
2017-08-08T18:31:47.024Z,5.10
2017-08-08T18:34:14.506Z,5.23
2017-08-08T18:36:41.985Z,4.87
2017-08-08T18:39:10.227Z,4.57
2017-08-08T18:41:37.689Z,5.73
2017-08-08T18:44:05.164Z,4.73
2017-08-08T18:46:32.633Z,5.80
2017-08-08T18:49:00.996Z,5.27
2017-08-08T18:51:29.023Z,5.50
2017-08-08T18:53:56.488Z,6.50
2017-08-08T18:56:23.959Z,5.33
2017-08-08T18:58:51.436Z,4.87
2017-08-08T19:01:18.908Z,5.30
2017-08-08T19:03:47.145Z,4.97
2017-08-08T19:06:14.625Z,5.50
2017-08-08T19:08:42.099Z,5.50
2017-08-08T19:11:09.592Z,5.90
2017-08-08T19:13:37.132Z,6.73
2017-08-08T19:16:05.376Z,7.00
2017-08-08T19:18:33.693Z,5.60
2017-08-08T19:21:01.944Z,5.27
2017-08-08T19:23:29.411Z,6.13
2017-08-08T19:25:56.883Z,6.37
2017-08-08T19:28:25.115Z,6.83
2017-08-08T19:30:52.585Z,6.67
2017-08-08T19:33:20.056Z,6.17
2017-08-08T19:35:47.528Z,6.23
2017-08-08T19:38:15.772Z,5.80
2017-08-08T19:40:43.243Z,5.03
2017-08-08T19:43:10.720Z,5.83
2017-08-08T19:45:40.799Z,6.17
2017-08-08T19:48:08.268Z,5.10
2017-08-08T19:50:35.753Z,6.10
2017-08-08T19:53:03.220Z,5.10
2017-08-08T19:55:30.692Z,5.57
2017-08-08T19:57:58.165Z,5.53
2017-08-08T20:00:26.399Z,5.87
2017-08-08T20:02:53.876Z,5.30
2017-08-08T20:05:21.366Z,6.67
2017-08-08T20:07:48.831Z,5.77
2017-08-08T20:10:16.306Z,5.47
2017-08-08T20:12:43.772Z,5.63
2017-08-08T20:15:11.270Z,5.67
2017-08-08T20:17:38.740Z,5.80
2017-08-08T20:20:06.976Z,6.07
2017-08-08T20:22:34.450Z,7.20
2017-08-08T20:25:01.938Z,6.47
2017-08-08T20:27:30.817Z,5.77
2017-08-08T20:29:58.610Z,5.83
2017-08-08T20:32:26.088Z,5.37
2017-08-08T20:34:53.556Z,6.00
2017-08-08T20:37:21.053Z,5.83
2017-08-08T20:39:48.520Z,6.13
2017-08-08T20:42:15.984Z,6.40
2017-08-08T20:44:44.244Z,6.10
2017-08-08T20:47:11.754Z,5.70
2017-08-08T20:49:39.231Z,6.40
2017-08-08T20:52:06.708Z,5.70
2017-08-08T20:54:34.952Z,5.77
2017-08-08T20:57:03.026Z,6.60
2017-08-08T20:59:30.536Z,6.53
2017-08-08T21:01:58.014Z,5.90
2017-08-08T21:04:25.484Z,5.63
2017-08-08T21:06:52.952Z,5.93
2017-08-08T21:09:20.438Z,5.77
2017-08-08T21:11:48.677Z,5.23
2017-08-08T21:14:16.147Z,6.33
2017-08-08T21:16:43.621Z,5.93
2017-08-08T21:19:11.104Z,5.37
2017-08-08T21:21:39.363Z,5.70
2017-08-08T21:24:06.838Z,4.90
2017-08-08T21:26:34.771Z,5.33
2017-08-08T21:29:02.263Z,6.17
2017-08-08T21:31:30.516Z,5.30
2017-08-08T21:33:57.989Z,4.87
2017-08-08T21:36:28.272Z,5.50
2017-08-08T21:38:55.765Z,4.90
2017-08-08T21:41:24.678Z,6.23
2017-08-08T21:43:52.225Z,5.20
2017-08-08T21:46:20.666Z,4.90
2017-08-08T21:48:48.977Z,4.93
2017-08-08T21:51:16.529Z,5.17
2017-08-08T21:53:44.774Z,5.07
2017-08-08T21:56:12.247Z,5.13
2017-08-08T21:58:39.847Z,5.53
2017-08-08T22:01:07.319Z,4.97
2017-08-08T22:03:34.792Z,3.83
2017-08-08T22:06:02.382Z,5.40
2017-08-08T22:08:29.844Z,4.40
2017-08-08T22:10:57.316Z,4.47
2017-08-08T22:13:25.568Z,4.53
2017-08-08T22:15:53.054Z,4.60
2017-08-08T22:18:21.287Z,4.80
2017-08-08T22:20:48.767Z,4.43
2017-08-08T22:23:16.233Z,5.10
2017-08-08T22:25:43.713Z,4.93
2017-08-08T22:28:12.199Z,4.63
2017-08-08T22:30:39.677Z,4.33
2017-08-08T22:33:07.146Z,4.73
2017-08-08T22:35:34.660Z,5.00
2017-08-08T22:38:02.908Z,4.03
2017-08-08T22:40:30.373Z,3.90
2017-08-08T22:42:57.848Z,3.50
2017-08-08T22:45:26.080Z,4.27
2017-08-08T22:47:53.548Z,3.83
2017-08-08T22:50:21.014Z,4.07
2017-08-08T22:52:48.488Z,3.90
2017-08-08T22:55:16.009Z,4.00
2017-08-08T22:57:43.491Z,5.10
2017-08-08T23:00:10.955Z,3.80
2017-08-08T23:02:38.439Z,4.70
2017-08-08T23:05:06.680Z,3.77
2017-08-08T23:07:34.160Z,4.43
2017-08-08T23:10:01.626Z,4.07
2017-08-08T23:12:29.107Z,3.87
2017-08-08T23:14:56.577Z,4.20
2017-08-08T23:17:24.072Z,4.90
2017-08-08T23:19:51.532Z,4.07
2017-08-08T23:22:19.012Z,3.80
2017-08-08T23:24:46.471Z,3.93
2017-08-08T23:27:13.955Z,4.70
2017-08-08T23:29:41.416Z,4.00
2017-08-08T23:32:08.891Z,3.83
2017-08-08T23:34:36.911Z,5.10
2017-08-08T23:37:04.376Z,4.70
2017-08-08T23:39:31.845Z,4.00
2017-08-08T23:41:59.330Z,4.13
2017-08-08T23:44:26.804Z,3.40
2017-08-08T23:46:55.498Z,3.90
2017-08-08T23:49:22.975Z,3.67
2017-08-08T23:51:50.443Z,4.00
2017-08-08T23:54:17.960Z,4.50
2017-08-08T23:56:45.431Z,4.13
2017-08-08T23:59:12.907Z,3.80
